• Join FlightAware (Why Join?)
  • Login
  • US Flag 
07:54AM EDT


 

Airport Tracker/Info


-or-


 

Live Flight TrackerFlight Track Log ✈ SWA975 ✈ 20-Apr-2013 ✈ KSTL - KOKC

Flight Track Log - Related Links

Times and Time Zones

All times are in EDT time to prevent confusion due to time zone crossing. See the SWA975 flight status page for this flight to view local times or setup timezone preferences in your user account.

Time Position Orientation Groundspeed Altitude Reporting Facility
EDT Latitude Longitude Course Direction KTS MPH feet Rate Location/Type
06:27PM 38.7469 -90.3206 302° West 147 169 1,400  Level FAA TRACON SMA TRACON (SMA)
06:27PM 38.7539 -90.3350 302° West 151 174 2,100 2,340 Climbing FAA TRACON SMA TRACON (SMA)
06:27PM 38.7636 -90.3572 299° West 180 207 3,000 2,880 Climbing FAA TRACON SMA TRACON (SMA)
06:28PM 38.7697 -90.3789 290° West 211 243 4,000 2,760 Climbing FAA TRACON SMA TRACON (SMA)
06:28PM 38.7628 -90.4094 254° West 240 276 4,800 2,220 Climbing FAA TRACON SMA TRACON (SMA)
06:28PM 38.7508 -90.4319 236° Southwest 249 287 5,500 1,740 Climbing FAA TRACON SMA TRACON (SMA)
06:29PM 38.7392 -90.4542 236° Southwest 247 284 6,000 720 Climbing FAA TRACON SMA TRACON (SMA)
06:29PM 38.7242 -90.4836 237° Southwest 254 292 6,000  Level FAA TRACON SMA TRACON (SMA)
06:29PM 38.7131 -90.5075 239° Southwest 255 293 6,000  Level FAA TRACON SMA TRACON (SMA)
06:30PM 38.7017 -90.5311 238° Southwest 253 291 6,000 120 Level FAA TRACON SMA TRACON (SMA)
06:30PM 38.6872 -90.5611 238° Southwest 258 297 6,100 2,220 Climbing FAA TRACON SMA TRACON (SMA)
06:30PM 38.6758 -90.5856 239° Southwest 260 299 7,500 3,900 Climbing FAA TRACON SMA TRACON (SMA)
06:31PM 38.6633 -90.6081 235° Southwest 256 295 8,700 3,900 Climbing FAA TRACON SMA TRACON (SMA)
06:31PM 38.6486 -90.6389 239° Southwest 260 299 10,100 3,060 Climbing FAA TRACON SMA TRACON (SMA)
06:31PM 38.6353 -90.6650 237° Southwest 277 319 10,700 1,500 Climbing FAA TRACON SMA TRACON (SMA)
06:32PM 38.6222 -90.6947 241° Southwest 307 353 11,100 2,700 Climbing FAA TRACON SMA TRACON (SMA)
06:32PM 38.6036 -90.7339 239° Southwest 333 383 12,500 3,780 Climbing FAA TRACON SMA TRACON (SMA)
06:32PM 38.5878 -90.7647 237° Southwest 339 390 13,700 2,520 Climbing FAA TRACON SMA TRACON (SMA)
06:33PM 38.5722 -90.7958 237° Southwest 339 390 14,200 1,380 Climbing FAA TRACON SMA TRACON (SMA)
06:33PM 38.5519 -90.8358 237° Southwest 348 400 14,600 1,020 Climbing FAA TRACON SMA TRACON (SMA)
06:33PM 38.5350 -90.8689 237° Southwest 358 412 14,900 1,500 Climbing FAA TRACON SMA TRACON (SMA)
06:34PM 38.5183 -90.9025 238° Southwest 366 421 15,600 3,180 Climbing FAA TRACON SMA TRACON (SMA)
06:34PM 38.4975 -90.9450 238° Southwest 368 423 17,000 3,720 Climbing FAA TRACON SMA TRACON (SMA)
06:34PM 38.4808 -90.9789 238° Southwest 367 422 18,100 3,060 Climbing FAA TRACON SMA TRACON (SMA)
06:35PM 38.4639 -91.0119 237° Southwest 365 420 19,100 3,300 Climbing FAA TRACON SMA TRACON (SMA)
06:35PM 38.4419 -91.0542 236° Southwest 370 426 20,300 3,180 Climbing FAA TRACON SMA TRACON (SMA)
06:35PM 38.4258 -91.0892 240° Southwest 374 430 21,200 2,880 Climbing FAA TRACON SMA TRACON (SMA)
06:36PM 38.4044 -91.1336 238° Southwest 380 437 22,300 2,820 Climbing FAA TRACON SMA TRACON (SMA)
06:36PM 38.3867 -91.1692 237° Southwest 385 443 23,100 2,580 Climbing FAA TRACON SMA TRACON (SMA)
06:36PM 38.3717 -91.2067 243° Southwest 387 445 24,000 2,760 Climbing FAA TRACON SMA TRACON (SMA)
06:37PM 38.3494 -91.2514 238° Southwest 389 448 25,000 2,700 Climbing FAA TRACON SMA TRACON (SMA)
06:37PM 38.3369 -91.2911 248° West 391 450 25,800 2,460 Climbing FAA TRACON SMA TRACON (SMA)
06:37PM 38.3231 -91.3297 245° Southwest 392 451 26,600 2,220 Climbing FAA TRACON SMA TRACON (SMA)
06:38PM 38.3094 -91.3692 246° West 395 455 27,300 2,340 Climbing FAA TRACON SMA TRACON (SMA)
06:38PM 38.2897 -91.4167 242° Southwest 395 455 28,200 2,220 Climbing FAA TRACON SMA TRACON (SMA)
06:38PM 38.2772 -91.4575 249° West 400 460 28,800 1,800 Climbing FAA TRACON SMA TRACON (SMA)
06:39PM 38.2464 -91.5858 253° West 399 459 30,000 2,280 Climbing Kansas City Center
06:40PM 38.2003 -91.7147 246° West 400 460 32,800 2,160 Climbing Kansas City Center
06:41PM 38.1550 -91.8364 245° Southwest 386 444 34,500 1,500 Climbing Kansas City Center
06:42PM 38.1078 -91.9628 245° Southwest 392 451 35,900 1,440 Climbing Kansas City Center
06:43PM 38.0572 -92.0975 245° Southwest 396 456 37,500 1,320 Climbing Kansas City Center
06:44PM 38.0103 -92.2236 245° Southwest 397 457 38,700 960 Climbing Kansas City Center
06:45PM 37.9625 -92.3508 245° Southwest 399 459 39,600 600 Climbing Kansas City Center
06:46PM 37.9147 -92.4775 244° Southwest 399 459 40,000 180 Climbing Kansas City Center
06:47PM 37.8672 -92.6036 245° Southwest 398 458 40,000  Level Kansas City Center
06:48PM 37.8192 -92.7294 244° Southwest 400 460 40,000  Level Kansas City Center
06:49PM 37.7681 -92.8633 244° Southwest 399 459 40,000  Level Kansas City Center
06:50PM 37.7114 -93.0131 244° Southwest 395 455 40,000  Level Kansas City Center
06:51PM 37.6636 -93.1364 244° Southwest 391 450 40,000  Level Kansas City Center
06:52PM 37.6147 -93.2603 244° Southwest 392 451 40,000  Level Kansas City Center
06:53PM 37.5675 -93.3864 245° Southwest 395 455 40,000  Level Kansas City Center
06:54PM 37.5183 -93.5114 244° Southwest 397 457 40,000  Level Kansas City Center
06:55PM 37.4689 -93.6364 244° Southwest 398 458 40,000  Level Kansas City Center
06:56PM 37.4186 -93.7617 243° Southwest 399 459 40,000  Level Kansas City Center
06:57PM 37.3694 -93.8881 244° Southwest 401 461 40,000  Level Kansas City Center
06:58PM 37.3200 -94.0153 244° Southwest 403 464 40,000  Level Kansas City Center
06:59PM 37.2678 -94.1444 243° Southwest 405 466 40,000  Level Kansas City Center
07:00PM 37.2075 -94.2956 243° Southwest 405 466 40,000  Level Kansas City Center
07:01PM 37.1578 -94.4206 244° Southwest 401 461 40,000  Level Kansas City Center
07:03PM 37.1069 -94.5453 243° Southwest 401 461 40,000  Level Kansas City Center
07:04PM 37.0567 -94.6697 243° Southwest 401 461 40,000  Level Kansas City Center
07:05PM 37.0058 -94.7936 243° Southwest 401 461 40,000  Level Kansas City Center
07:06PM 36.9544 -94.9183 243° Southwest 403 464 40,000  Level Kansas City Center
07:07PM 36.9033 -95.0439 243° Southwest 404 465 40,000 -240 Level Kansas City Center
07:08PM 36.8519 -95.1683 243° Southwest 404 465 39,600 -840 Descending Kansas City Center
07:09PM 36.7914 -95.3150 243° Southwest 398 458 38,400 -1,080 Descending Kansas City Center
07:10PM 36.7417 -95.4353 243° Southwest 394 453 37,500 -720 Descending Kansas City Center
07:11PM 36.6914 -95.5544 242° Southwest 392 451 37,000 -540 Descending Kansas City Center
07:12PM 36.6425 -95.6742 243° Southwest 392 451 36,400 -840 Descending Kansas City Center
07:13PM 36.5919 -95.7914 242° Southwest 391 450 35,400 -1,020 Descending Kansas City Center
07:14PM 36.5431 -95.9092 243° Southwest 387 445 34,400 -1,200 Descending Kansas City Center
07:15PM 36.4839 -96.0494 242° Southwest 385 443 32,900 -1,740 Descending Kansas City Center
07:16PM 36.4356 -96.1633 242° Southwest 378 435 30,900 -2,040 Descending Kansas City Center
07:17PM 36.3892 -96.2725 242° Southwest 366 421 28,900 -1,500 Descending Kansas City Center
07:18PM 36.3419 -96.3817 242° Southwest 361 415 27,800 -1,620 Descending Kansas City Center
07:19PM 36.2933 -96.4956 242° Southwest 367 422 25,600 -2,160 Descending Kansas City Center
07:20PM 36.2464 -96.6042 242° Southwest 364 419 23,500 -2,040 Descending Kansas City Center
07:21PM 36.2017 -96.7075 242° Southwest 353 406 21,500 -1,920 Descending Kansas City Center
07:22PM 36.1606 -96.8069 243° Southwest 340 391 19,600 -2,100 Descending Kansas City Center
07:23PM 36.1111 -96.9189 241° Southwest 317 365 17,300 -1,920 Descending Kansas City Center
07:24PM 36.0553 -96.9983 229° Southwest 311 358 15,700 -1,680 Descending Kansas City Center
07:25PM 35.9914 -97.0644 220° Southwest 304 350 13,900 -1,860 Descending Kansas City Center
07:26PM 35.9281 -97.1297 220° Southwest 299 344 12,000 -1,740 Descending Kansas City Center
07:27PM 35.8675 -97.1936 221° Southwest 291 335 10,400 -1,320 Descending Kansas City Center
07:28PM 35.8231 -97.2369 218° Southwest 267 307 9,900 -1,440 Descending Fort Worth Center
07:29PM 35.7689 -97.2958 221° Southwest 253 291 8,200 -1,680 Descending Fort Worth Center
07:30PM 35.7128 -97.3522 219° Southwest 258 297 6,600 -1,500 Descending Fort Worth Center
07:31PM 35.6586 -97.4086 220° Southwest 255 293 5,200 -960 Descending Fort Worth Center
07:32PM 35.6086 -97.4594 220° Southwest 237 273 4,700 -420 Descending Fort Worth Center
07:33PM 35.5583 -97.5106 220° Southwest 228 262 4,400 -540 Descending Fort Worth Center
07:34PM 35.5125 -97.5564 219° Southwest 220 253 3,700 -840 Descending Fort Worth Center
07:35PM 35.4728 -97.5894 214° Southwest 161 185 2,800 -900 Descending Fort Worth Center
07:36PM 35.4333 -97.5919 183° South 121 139 1,900 -900 Descending Fort Worth Center